Old Mobeetie, Texas
Current Conditions -  °F | °C
As of 10:55 AM on Saturday 22 Nov 2014 (Local Time) from KHHF Reporting Station
Thunderstorm Thunderstorm  
Wind Chill: 58°   Ceiling: Unl
Heat Index: 58°   Visibility: 10mi
Dew Point: 50°   Wind: 0mph
Humidity: 76%   Direction: NA
Pressure: 29.89"   Gusts: NA
Location:  35.5155°N, 100.433°W
Report Text: KHHF 221655Z AUTO 00000KT 10SM VCTS CLR 14/10 A2989 RMK AO2 LTG DSNT E THRU S T01430102
Loading
Personal Weather Stations






























Interactive Weather Map New forecast layout! Learn more

10-Day Weather Forecast

Advertisements
Track Severe Weather on mobile